Terminal Aerodrome Forecast
Issued by NWS

Home | Current Version | Previous Version | Text Only | Print | Product List | Glossary On
Versions: 1 2 3 4 5 6 7 8 9 10 11 12 13 14 15 16 17 18 19 20 21 22 23 24 25 26 27
000
FTUS44 KLIX 280012 RRA
TAFGPT
TAF
KGPT 280012Z 2800/2824 07007KT P6SM VCSH FEW030 OVC100
     FM280100 08011KT 6SM -TSRA SCT008 OVC035CB
      TEMPO 2801/2803 3SM TSRA BKN008CB
     FM280300 08012KT 4SM TSRA BKN008CB
     FM280600 09012KT 3SM SHRA OVC008
     FM281500 14008KT 4SM SHRA OVC008
     FM281800 20006KT P6SM BKN015=

USA.gov is the U.S. government's official web portal to all federal, state and local government web resources and services.